Map

Track Data

SID SEASON NUMBER BASIN SUBBASIN NAME ISO_TIME NATURE LAT LON WMO_WIND WMO_PRES WMO_AGENCY TRACK_TYPE DIST2LAND LANDFALL IFLAG USA_AGENCY USA_ATCF_ID USA_LAT USA_LON USA_RECORD USA_STATUS USA_WIND USA_PRES USA_SSHS USA_R34_NE USA_R34_SE USA_R34_SW USA_R34_NW USA_R50_NE USA_R50_SE USA_R50_SW USA_R50_NW USA_R64_NE USA_R64_SE USA_R64_SW USA_R64_NW USA_POCI USA_ROCI USA_RMW USA_EYE TOKYO_LAT TOKYO_LON TOKYO_GRADE TOKYO_WIND TOKYO_PRES TOKYO_R50_DIR TOKYO_R50_LONG TOKYO_R50_SHORT TOKYO_R30_DIR TOKYO_R30_LONG TOKYO_R30_SHORT TOKYO_LAND CMA_LAT CMA_LON CMA_CAT CMA_WIND CMA_PRES HKO_LAT HKO_LON HKO_CAT HKO_WIND HKO_PRES NEWDELHI_LAT NEWDELHI_LON NEWDELHI_GRADE NEWDELHI_WIND NEWDELHI_PRES NEWDELHI_CI NEWDELHI_DP NEWDELHI_POCI REUNION_LAT REUNION_LON REUNION_TYPE REUNION_WIND REUNION_PRES REUNION_TNUM REUNION_CI REUNION_RMW REUNION_R34_NE REUNION_R34_SE REUNION_R34_SW REUNION_R34_NW REUNION_R50_NE REUNION_R50_SE REUNION_R50_SW REUNION_R50_NW REUNION_R64_NE REUNION_R64_SE REUNION_R64_SW REUNION_R64_NW BOM_LAT BOM_LON BOM_TYPE BOM_WIND BOM_PRES BOM_TNUM BOM_CI BOM_RMW BOM_R34_NE BOM_R34_SE BOM_R34_SW BOM_R34_NW BOM_R50_NE BOM_R50_SE BOM_R50_SW BOM_R50_NW BOM_R64_NE BOM_R64_SE BOM_R64_SW BOM_R64_NW BOM_ROCI BOM_POCI BOM_EYE BOM_POS_METHOD BOM_PRES_METHOD NADI_LAT NADI_LON NADI_CAT NADI_WIND NADI_PRES WELLINGTON_LAT WELLINGTON_LON WELLINGTON_WIND WELLINGTON_PRES DS824_LAT DS824_LON DS824_STAGE DS824_WIND DS824_PRES TD9636_LAT TD9636_LON TD9636_STAGE TD9636_WIND TD9636_PRES TD9635_LAT TD9635_LON TD9635_WIND TD9635_PRES TD9635_ROCI NEUMANN_LAT NEUMANN_LON NEUMANN_CLASS NEUMANN_WIND NEUMANN_PRES MLC_LAT MLC_LON MLC_CLASS MLC_WIND MLC_PRES USA_GUST BOM_GUST BOM_GUST_PER REUNION_GUST REUNION_GUST_PER USA_SEAHGT USA_SEARAD_NE USA_SEARAD_SE USA_SEARAD_SW USA_SEARAD_NW STORM_SPEED STORM_DIR
1999202N10241 1999 47 EP MM NOT_NAMED 1999-07-20 12:00:00 NR 10.0000 -119.300 main 1750 1750 O_____________ jtwc_ep EP041999 10.0000 -119.300 20 -1 9 280
1999202N10241 1999 47 EP MM NOT_NAMED 1999-07-20 15:00:00 NR 10.0801 -119.740 main 1765 1765 P_____________ EP041999 10.0801 -119.740 20 -1 9 283
1999202N10241 1999 47 EP MM NOT_NAMED 1999-07-20 18:00:00 NR 10.2000 -120.200 main 1787 1787 O_____________ jtwc_ep EP041999 10.2000 -120.200 20 -1 10 288
1999202N10241 1999 47 EP MM NOT_NAMED 1999-07-20 21:00:00 NR 10.3850 -120.692 main 1802 1802 P_____________ EP041999 10.3850 -120.692 20 -1 11 292
1999202N10241 1999 47 EP MM NOT_NAMED 1999-07-21 00:00:00 NR 10.6000 -121.200 main 1819 1817 O_____________ jtwc_ep EP041999 10.6000 -121.200 20 -1 11 292
1999202N10241 1999 47 EP MM NOT_NAMED 1999-07-21 03:00:00 NR 10.7924 -121.700 main 1837 1837 P_____________ EP041999 10.7924 -121.700 20 -1 11 292
1999202N10241 1999 47 EP MM NOT_NAMED 1999-07-21 06:00:00 NR 11.0000 -122.200 main 1857 1856 O_____________ jtwc_ep EP041999 11.0000 -122.200 20 -1 11 295
1999202N10241 1999 47 EP MM NOT_NAMED 1999-07-21 09:00:00 NR 11.2500 -122.715 main 1878 1869 P_____________ EP041999 11.2500 -122.715 20 -1 11 297
1999202N10241 1999 47 EP MM NOT_NAMED 1999-07-21 12:00:00 NR 11.5000 -123.200 main 1883 1881 O_____________ jtwc_ep EP041999 11.5000 -123.200 20 -1 10 298
1999202N10241 1999 47 EP MM NOT_NAMED 1999-07-21 15:00:00 NR 11.7073 -123.608 main 1892 1890 P_____________ EP041999 11.7073 -123.608 20 -1 9 297
1999202N10241 1999 47 EP MM NOT_NAMED 1999-07-21 18:00:00 NR 11.9000 -124.000 main 1902 1900 O_____________ jtwc_ep EP041999 11.9000 -124.000 20 -1 9 296
1999202N10241 1999 47 EP MM NOT_NAMED 1999-07-21 21:00:00 NR 12.0999 -124.428 main 1913 1913 P_____________ EP041999 12.0999 -124.428 20 -1 10 294
1999202N10241 1999 47 EP MM NOT_NAMED 1999-07-22 00:00:00 NR 12.3000 -124.900 main 1932 1931 O_____________ jtwc_ep EP041999 12.3000 -124.900 20 -1 11 292
1999202N10241 1999 47 EP MM NOT_NAMED 1999-07-22 03:00:00 NR 12.4999 -125.420 main 1953 1953 P_____________ EP041999 12.4999 -125.420 22 -1 11 290
1999202N10241 1999 47 EP MM NOT_NAMED 1999-07-22 06:00:00 NR 12.7000 -126.000 main 1982 1982 O_____________ jtwc_ep EP041999 12.7000 -126.000 25 -1 12 290
1999202N10241 1999 47 EP MM NOT_NAMED 1999-07-22 09:00:00 NR 12.9223 -126.612 main 2013 2013 P_____________ EP041999 12.9223 -126.612 25 -1 13 288
1999202N10241 1999 47 EP MM NOT_NAMED 1999-07-22 12:00:00 NR 13.1000 -127.300 main 2054 2054 O_____________ jtwc_ep EP041999 13.1000 -127.300 25 -1 14 280
1999202N10241 1999 47 EP MM NOT_NAMED 1999-07-22 15:00:00 NR 13.1649 -128.078 main 2112 2112 P_____________ EP041999 13.1573 -128.063 25 -1 16 274
1999202N10241 1999 47 EP MM NOT_NAMED 1999-07-22 18:00:00 NR 13.2000 -128.900 main 2169 2169 O_____________ jtwc_ep EP041999 13.2000 -128.900 25 -1 16 274
1999202N10241 1999 47 EP MM NOT_NAMED 1999-07-22 21:00:00 NR 13.2848 -129.700 main 2217 2217 P_____________ EP041999 13.3426 -129.815 27 -1 16 278
1999202N10241 1999 47 EP MM NOT_NAMED 1999-07-23 00:00:00 TS 13.4333 -130.567 30 hurdat_epa main 2274 2273 O_____________ hurdat_epa EP041999 13.5000 -130.700 TD 30 -1 16 281
1999202N10241 1999 47 EP MM NOT_NAMED 1999-07-23 03:00:00 TS 13.5864 -131.364 main 2318 2318 P_____________ EP041999 13.6146 -131.438 TD 30 -1 15 280
1999202N10241 1999 47 EP MM NOT_NAMED 1999-07-23 06:00:00 TS 13.7000 -132.100 30 hurdat_epa main 2363 2363 O_____________ hurdat_epa EP041999 13.7000 -132.100 TD 30 -1 14 277
1999202N10241 1999 47 EP MM NOT_NAMED 1999-07-23 09:00:00 TS 13.7480 -132.772 main 2418 2365 P_____________ EP041999 13.7647 -132.750 TD 30 -1 13 273
1999202N10241 1999 47 EP MM NOT_NAMED 1999-07-23 12:00:00 TS 13.7667 -133.433 30 hurdat_epa main 2365 2294 O_____________ hurdat_epa EP041999 13.8000 -133.400 TD 30 -1 13 271
1999202N10241 1999 47 EP MM NOT_NAMED 1999-07-23 15:00:00 TS 13.7807 -134.126 main 2294 2222 P_____________ EP041999 13.7999 -134.093 TD 30 -1 14 271
1999202N10241 1999 47 EP MM NOT_NAMED 1999-07-23 18:00:00 TS 13.8000 -134.833 30 hurdat_epa main 2222 2151 O_____________ hurdat_epa EP041999 13.8000 -134.800 TD 30 -1 14 273
1999202N10241 1999 47 EP MM NOT_NAMED 1999-07-23 21:00:00 TS 13.8447 -135.530 main 2151 2076 P_____________ EP041999 13.8421 -135.478 TD 30 -1 14 274
1999202N10241 1999 47 EP MM NOT_NAMED 1999-07-24 00:00:00 TS 13.9000 -136.267 30 hurdat_epa main 2066 1995 O_____________ hurdat_epa EP041999 13.9000 -136.200 TD 30 -1 15 274
1999202N10241 1999 47 EP MM NOT_NAMED 1999-07-24 03:00:00 TS 13.9499 -137.083 main 1985 1900 P_____________ EP041999 13.9499 -137.028 TD 30 -1 16 274
1999202N10241 1999 47 EP MM NOT_NAMED 1999-07-24 06:00:00 TS 14.0000 -137.933 30 hurdat_epa main 1900 1816 O_____________ hurdat_epa EP041999 14.0000 -137.900 TD 30 -1 16 274
1999202N10241 1999 47 EP MM NOT_NAMED 1999-07-24 09:00:00 TS 14.0546 -138.759 main 1806 1726 P_____________ EP041999 14.0495 -138.735 TD 30 -1 16 274
1999202N10241 1999 47 EP MM NOT_NAMED 1999-07-24 12:00:00 TS 14.1000 -139.600 30 hurdat_epa main 1726 1647 O_____________ hurdat_epa EP041999 14.1000 -139.600 TD 30 -1 17 273
1999202N10241 1999 47 EP CP NOT_NAMED 1999-07-24 15:00:00 TS 14.1317 -140.493 main 1637 1543 P_____________ EP041999 14.1420 -140.513 TD 30 -1 18 272
1999202N10241 1999 47 EP CP NOT_NAMED 1999-07-24 18:00:00 TS 14.1750 -141.450 30 hurdat_epa main 1543 1431 O_____________ hurdat_epa EP041999 14.2000 -141.500 TD 30 -1 20 275
1999202N10241 1999 47 EP CP NOT_NAMED 1999-07-24 21:00:00 TS 14.2912 -142.575 main 1422 1320 P_____________ EP041999 14.2912 -142.575 TD 27 -1 22 276
1999202N10241 1999 47 EP CP NOT_NAMED 1999-07-25 00:00:00 TS 14.4000 -143.700 25 hurdat_epa main 1311 O_____________ hurdat_epa EP041999 14.4000 -143.700 TD 25 -1 22 276

About IBTrACS Database

This database is a web-friendly format of International Best Track Archive for Climate Stewardship (IBTrACS), a global best track data archive curated by NOAA dating back to 1842.

Updated: 2021-12-06